createdAt,value
2023-02-15T00:01:09.852Z,10.05
2023-02-15T00:03:56.353Z,10.10
2023-02-15T00:06:42.034Z,11.73
2023-02-15T00:09:27.640Z,9.68
2023-02-15T00:12:12.996Z,11.00
2023-02-15T00:14:58.611Z,11.80
2023-02-15T00:17:44.321Z,10.38
2023-02-15T00:20:29.940Z,10.38
2023-02-15T00:23:15.893Z,10.98
2023-02-15T00:26:06.400Z,11.20
2023-02-15T00:28:52.324Z,10.10
2023-02-15T00:31:40.783Z,11.27
2023-02-15T00:34:29.992Z,9.93
2023-02-15T00:37:16.032Z,10.45
2023-02-15T00:40:07.040Z,10.70
2023-02-15T00:42:52.792Z,12.93
2023-02-15T00:45:38.177Z,11.75
2023-02-15T00:48:23.652Z,11.68
2023-02-15T00:51:09.059Z,11.82
2023-02-15T00:53:57.210Z,10.43
2023-02-15T00:56:42.692Z,9.70
2023-02-15T00:59:28.461Z,11.55
2023-02-15T01:02:13.957Z,10.00
2023-02-15T01:04:59.406Z,10.77
2023-02-15T01:07:47.872Z,10.07
2023-02-15T01:10:35.955Z,10.23
2023-02-15T01:13:21.947Z,9.75
2023-02-15T01:16:08.578Z,10.57
2023-02-15T01:18:55.605Z,11.35
2023-02-15T01:21:41.761Z,9.10
2023-02-15T01:24:28.972Z,10.23
2023-02-15T01:27:18.100Z,9.68
2023-02-15T01:30:05.665Z,11.00
2023-02-15T01:32:50.845Z,11.18
2023-02-15T01:35:37.765Z,10.85
2023-02-15T01:38:23.107Z,10.82
2023-02-15T01:41:29.016Z,11.70
2023-02-15T01:44:53.545Z,11.23
2023-02-15T01:47:46.450Z,10.45
2023-02-15T01:50:39.313Z,12.25
2023-02-15T01:53:39.528Z,11.82
2023-02-15T01:56:32.011Z,10.23
2023-02-15T01:59:22.163Z,9.85
2023-02-15T02:02:10.672Z,10.70
2023-02-15T02:05:00.757Z,12.13
2023-02-15T02:07:49.812Z,10.25
2023-02-15T02:10:37.648Z,11.60
2023-02-15T02:13:23.140Z,10.45
2023-02-15T02:16:21.010Z,10.73
2023-02-15T02:19:31.247Z,12.75
2023-02-15T02:22:36.128Z,11.50
2023-02-15T02:25:49.712Z,12.15
2023-02-15T02:29:04.697Z,11.50
2023-02-15T02:31:56.384Z,11.30
2023-02-15T02:34:42.499Z,12.90
2023-02-15T02:37:44.291Z,12.25
2023-02-15T02:40:49.438Z,14.15
2023-02-15T02:43:43.100Z,11.82
2023-02-15T02:46:33.807Z,11.88
2023-02-15T02:49:35.197Z,12.90
2023-02-15T02:52:45.462Z,10.45
2023-02-15T02:55:42.239Z,11.95
2023-02-15T02:58:42.741Z,11.55
2023-02-15T03:01:37.943Z,12.15
2023-02-15T03:04:29.962Z,12.15
2023-02-15T03:07:23.651Z,11.82
2023-02-15T03:10:10.882Z,11.05
2023-02-15T03:12:56.435Z,12.48
2023-02-15T03:16:05.056Z,11.48
2023-02-15T03:18:59.653Z,11.95
2023-02-15T03:22:04.764Z,11.50
2023-02-15T03:24:54.412Z,11.97
2023-02-15T03:27:51.054Z,10.63
2023-02-15T03:30:43.026Z,12.15
2023-02-15T03:33:29.723Z,11.30
2023-02-15T03:36:32.855Z,11.57
2023-02-15T03:39:23.662Z,10.60
2023-02-15T03:42:20.395Z,10.88
2023-02-15T03:45:15.699Z,11.18
2023-02-15T03:48:04.529Z,11.30
2023-02-15T03:51:10.534Z,11.73
2023-02-15T03:53:58.909Z,12.15
2023-02-15T03:57:06.999Z,11.18
2023-02-15T04:00:13.408Z,11.65
2023-02-15T04:03:22.988Z,10.82
2023-02-15T04:06:09.295Z,10.60
2023-02-15T04:09:13.722Z,11.05
2023-02-15T04:12:00.431Z,10.05
2023-02-15T04:15:04.338Z,11.68
2023-02-15T04:17:49.707Z,11.30
2023-02-15T04:20:53.749Z,10.48
2023-02-15T04:23:57.689Z,11.32
2023-02-15T04:26:43.138Z,10.25
2023-02-15T04:29:29.070Z,11.38
2023-02-15T04:32:14.232Z,11.00
2023-02-15T04:34:59.479Z,12.05
2023-02-15T04:37:45.097Z,10.70
2023-02-15T04:40:30.337Z,11.57
2023-02-15T04:43:15.730Z,11.02
2023-02-15T04:46:01.522Z,12.52
2023-02-15T04:48:47.192Z,12.40
2023-02-15T04:51:32.567Z,13.50
2023-02-15T04:54:17.935Z,13.13
2023-02-15T04:57:03.485Z,13.05
2023-02-15T04:59:48.933Z,14.80
2023-02-15T05:02:34.325Z,12.85
2023-02-15T05:05:20.322Z,12.95
2023-02-15T05:08:05.719Z,11.35
2023-02-15T05:10:51.655Z,10.80
2023-02-15T05:13:37.122Z,11.75
2023-02-15T05:16:22.566Z,12.80
2023-02-15T05:19:08.198Z,12.43
2023-02-15T05:21:54.311Z,12.43
2023-02-15T05:25:08.872Z,13.50
2023-02-15T05:28:13.446Z,13.02
2023-02-15T05:31:07.140Z,12.18
2023-02-15T05:33:52.957Z,12.82
2023-02-15T05:36:38.686Z,12.43
2023-02-15T05:39:23.894Z,13.88
2023-02-15T05:42:10.230Z,14.02
2023-02-15T05:44:55.601Z,18.77
2023-02-15T05:47:41.454Z,19.80
2023-02-15T05:50:27.558Z,20.83
2023-02-15T05:53:14.250Z,20.38
2023-02-15T05:56:01.659Z,15.88
2023-02-15T05:58:47.512Z,13.88
2023-02-15T06:01:33.099Z,13.20
2023-02-15T06:04:18.986Z,11.88
2023-02-15T06:07:04.417Z,13.73
2023-02-15T06:09:50.016Z,12.80
2023-02-15T06:12:35.953Z,13.13
2023-02-15T06:15:21.356Z,13.98
2023-02-15T06:18:06.846Z,13.10
2023-02-15T06:20:52.597Z,12.98
2023-02-15T06:23:38.983Z,12.68
2023-02-15T06:26:24.701Z,12.75
2023-02-15T06:29:10.607Z,12.25
2023-02-15T06:31:56.216Z,13.30
2023-02-15T06:34:41.610Z,12.75
2023-02-15T06:37:28.034Z,13.20
2023-02-15T06:40:14.304Z,13.35
2023-02-15T06:43:00.274Z,13.27
2023-02-15T06:45:45.992Z,12.88
2023-02-15T06:48:31.389Z,13.02
2023-02-15T06:51:20.278Z,12.88
2023-02-15T06:54:05.762Z,12.10
2023-02-15T06:56:51.059Z,12.43
2023-02-15T06:59:40.530Z,12.85
2023-02-15T07:02:26.553Z,10.98
2023-02-15T07:05:12.762Z,12.35
2023-02-15T07:08:00.275Z,11.77
2023-02-15T07:10:50.123Z,12.30
2023-02-15T07:13:36.181Z,15.15
2023-02-15T07:16:22.088Z,16.08
2023-02-15T07:19:33.618Z,13.98
2023-02-15T07:22:24.448Z,15.52
2023-02-15T07:25:11.898Z,13.95
2023-02-15T07:28:03.618Z,12.85
2023-02-15T07:30:50.140Z,16.50
2023-02-15T07:33:36.334Z,15.32
2023-02-15T07:36:22.027Z,13.45
2023-02-15T07:39:08.900Z,12.45
2023-02-15T07:41:54.640Z,15.15
2023-02-15T07:44:40.452Z,13.23
2023-02-15T07:47:27.691Z,14.50
2023-02-15T07:50:13.587Z,12.40
2023-02-15T07:53:03.789Z,12.75
2023-02-15T07:55:49.410Z,11.10
2023-02-15T07:58:53.824Z,9.57
2023-02-15T08:01:40.264Z,10.80
2023-02-15T08:04:26.234Z,9.88
2023-02-15T08:07:12.461Z,8.13
2023-02-15T08:10:00.470Z,10.52
2023-02-15T08:12:45.965Z,11.27
2023-02-15T08:15:32.656Z,8.32
2023-02-15T08:18:18.354Z,8.35
2023-02-15T08:21:05.838Z,13.95
2023-02-15T08:23:52.054Z,11.82
2023-02-15T08:26:42.344Z,9.60
2023-02-15T08:29:29.257Z,10.48
2023-02-15T08:32:18.469Z,10.27
2023-02-15T08:35:05.021Z,12.25
2023-02-15T08:37:52.471Z,11.18
2023-02-15T08:40:39.310Z,10.05
2023-02-15T08:43:27.896Z,10.32
2023-02-15T08:46:16.471Z,9.82
2023-02-15T08:52:08.276Z,9.75
2023-02-15T08:54:54.314Z,11.02
2023-02-15T08:57:45.808Z,10.85
2023-02-15T09:00:32.364Z,11.45
2023-02-15T09:03:19.353Z,11.70
2023-02-15T09:06:09.065Z,11.82
2023-02-15T09:11:59.818Z,8.38
2023-02-15T09:14:45.679Z,9.30
2023-02-15T09:17:32.564Z,9.85
2023-02-15T09:20:19.838Z,8.02
2023-02-15T09:23:05.828Z,9.73
2023-02-15T09:25:51.833Z,9.02
2023-02-15T09:28:37.495Z,9.75
2023-02-15T09:31:26.440Z,9.70
2023-02-15T09:34:14.835Z,10.25
2023-02-15T09:37:00.310Z,9.82
2023-02-15T09:39:49.086Z,9.40
2023-02-15T09:42:53.823Z,9.88
2023-02-15T09:45:59.420Z,8.73
2023-02-15T09:48:50.499Z,7.68
2023-02-15T09:51:56.662Z,8.48
2023-02-15T09:55:26.798Z,9.23
2023-02-15T09:58:44.748Z,10.35
2023-02-15T10:02:12.201Z,10.82
2023-02-15T10:05:31.212Z,9.35
2023-02-15T10:08:41.075Z,8.15
2023-02-15T10:11:53.317Z,8.73
2023-02-15T10:14:46.170Z,8.15
2023-02-15T10:17:40.724Z,9.35
2023-02-15T10:20:36.140Z,7.30
2023-02-15T10:23:27.771Z,8.45
2023-02-15T10:26:21.431Z,8.85
2023-02-15T10:29:17.298Z,9.02
2023-02-15T10:32:25.894Z,7.85
2023-02-15T10:35:17.182Z,8.23
2023-02-15T10:38:21.466Z,7.85
2023-02-15T10:41:28.090Z,8.52
2023-02-15T10:44:58.620Z,7.32
2023-02-15T10:47:55.825Z,8.02
2023-02-15T10:50:53.736Z,8.50
2023-02-15T10:54:15.195Z,7.13
2023-02-15T10:57:20.811Z,7.32
2023-02-15T11:00:13.264Z,8.45
2023-02-15T11:06:13.251Z,7.22
2023-02-15T11:09:05.016Z,7.72
2023-02-15T11:11:54.766Z,7.22
2023-02-15T11:14:49.349Z,7.30
2023-02-15T11:17:40.867Z,7.47
2023-02-15T11:20:33.294Z,8.25
2023-02-15T11:23:19.522Z,8.63
2023-02-15T11:26:13.591Z,10.25
2023-02-15T11:29:11.703Z,8.43
2023-02-15T11:32:12.690Z,7.30
2023-02-15T11:35:11.531Z,8.70
2023-02-15T11:38:11.676Z,7.82
2023-02-15T11:41:03.387Z,7.00
2023-02-15T11:44:06.138Z,7.35
2023-02-15T11:46:52.638Z,6.05
2023-02-15T11:49:40.017Z,5.05
2023-02-15T11:52:26.016Z,9.27
2023-02-15T11:55:21.196Z,6.53
2023-02-15T11:58:40.904Z,8.05
2023-02-15T12:01:36.219Z,8.00
2023-02-15T12:04:39.799Z,8.15
2023-02-15T12:07:30.761Z,7.82
2023-02-15T12:10:26.176Z,7.15
2023-02-15T12:13:16.115Z,6.68
2023-02-15T12:16:11.653Z,5.78
2023-02-15T12:19:00.452Z,7.25
2023-02-15T12:21:53.972Z,6.20
2023-02-15T12:24:47.522Z,5.55
2023-02-15T12:27:36.883Z,6.70
2023-02-15T12:30:26.335Z,6.00
2023-02-15T12:33:21.116Z,6.78
2023-02-15T12:36:13.500Z,5.65
2023-02-15T12:39:14.442Z,6.75
2023-02-15T12:42:02.876Z,6.00
2023-02-15T12:45:19.220Z,6.47
2023-02-15T12:48:15.007Z,8.02
2023-02-15T12:51:09.586Z,6.22
2023-02-15T12:53:56.738Z,8.80
2023-02-15T12:56:42.110Z,6.50
2023-02-15T12:59:27.865Z,10.43
2023-02-15T13:02:23.242Z,11.20
2023-02-15T13:05:25.288Z,6.13
2023-02-15T13:11:12.185Z,7.88
2023-02-15T13:14:27.554Z,5.38
2023-02-15T13:17:15.416Z,5.70
2023-02-15T13:20:25.554Z,18.20
2023-02-15T13:23:24.754Z,7.82
2023-02-15T13:26:16.992Z,8.02
2023-02-15T13:29:23.565Z,9.65
2023-02-15T13:32:25.282Z,9.27
2023-02-15T13:35:16.850Z,10.15
2023-02-15T13:38:26.120Z,7.50
2023-02-15T13:41:17.622Z,8.60
2023-02-15T13:44:21.748Z,5.93
2023-02-15T13:47:33.823Z,7.88
2023-02-15T13:50:23.684Z,7.22
2023-02-15T13:53:31.741Z,7.38
2023-02-15T13:56:46.082Z,6.85
2023-02-15T13:59:49.776Z,9.02
2023-02-15T14:02:57.090Z,9.05
2023-02-15T14:05:48.872Z,8.00
2023-02-15T14:08:55.292Z,7.63
2023-02-15T14:12:17.577Z,6.78
2023-02-15T14:18:29.381Z,6.93
2023-02-15T14:21:27.065Z,8.80
2023-02-15T14:24:35.639Z,7.20
2023-02-15T14:27:44.203Z,8.13
2023-02-15T14:30:51.017Z,9.07
2023-02-15T14:33:58.816Z,8.98
2023-02-15T14:36:45.298Z,9.13
2023-02-15T14:40:04.100Z,9.80
2023-02-15T14:43:00.029Z,10.10
2023-02-15T14:45:56.529Z,9.63
2023-02-15T14:48:51.416Z,9.75
2023-02-15T14:51:46.946Z,10.00
2023-02-15T14:54:35.522Z,8.38
2023-02-15T14:57:26.231Z,7.60
2023-02-15T15:00:36.653Z,7.35
2023-02-15T15:03:26.212Z,7.22
2023-02-15T15:06:26.495Z,6.93
2023-02-15T15:09:22.348Z,6.78
2023-02-15T15:12:16.826Z,6.65
2023-02-15T15:15:05.244Z,6.25
2023-02-15T15:18:06.327Z,11.15
2023-02-15T15:20:52.673Z,10.75
2023-02-15T15:23:45.778Z,10.30
2023-02-15T15:26:37.917Z,11.40
2023-02-15T15:29:40.893Z,8.98
2023-02-15T15:32:31.555Z,11.52
2023-02-15T15:35:39.058Z,8.65
2023-02-15T15:38:51.000Z,8.32
2023-02-15T15:41:59.009Z,8.95
2023-02-15T15:45:20.941Z,9.13
2023-02-15T15:48:22.632Z,7.28
2023-02-15T15:51:34.331Z,6.80
2023-02-15T15:54:24.132Z,12.37
2023-02-15T15:57:31.070Z,12.63
2023-02-15T16:00:30.568Z,11.38
2023-02-15T16:03:25.904Z,9.98
2023-02-15T16:06:15.847Z,11.48
2023-02-15T16:09:31.049Z,11.68
2023-02-15T16:12:22.419Z,12.40
2023-02-15T16:15:19.964Z,14.30
2023-02-15T16:18:06.710Z,12.93
2023-02-15T16:20:56.490Z,12.50
2023-02-15T16:23:59.435Z,17.85
2023-02-15T16:26:52.115Z,12.70
2023-02-15T16:32:26.660Z,10.50
2023-02-15T16:35:18.965Z,14.40
2023-02-15T16:38:05.747Z,15.73
2023-02-15T16:41:07.780Z,14.30
2023-02-15T16:44:00.233Z,19.00
2023-02-15T16:49:37.539Z,18.80
2023-02-15T16:52:26.848Z,34.25
2023-02-15T16:55:23.609Z,27.23
2023-02-15T16:58:24.397Z,21.70
2023-02-15T17:01:14.303Z,20.15
2023-02-15T17:04:13.572Z,19.88
2023-02-15T17:07:07.658Z,19.55
2023-02-15T17:10:00.771Z,41.33
2023-02-15T17:12:58.886Z,46.60
2023-02-15T17:16:00.584Z,48.15
2023-02-15T17:18:47.594Z,45.15
2023-02-15T17:21:42.355Z,44.15
2023-02-15T17:24:41.604Z,38.03
2023-02-15T17:27:30.396Z,35.22
2023-02-15T17:30:23.263Z,36.60
2023-02-15T17:33:23.958Z,18.52
2023-02-15T17:36:17.947Z,13.38
2023-02-15T17:39:23.420Z,10.00
2023-02-15T17:42:09.306Z,8.68
2023-02-15T17:44:54.741Z,8.82
2023-02-15T17:47:43.763Z,9.75
2023-02-15T17:50:37.084Z,19.17
2023-02-15T17:53:22.772Z,19.70
2023-02-15T17:56:11.162Z,18.75
2023-02-15T17:58:57.376Z,14.45
2023-02-15T18:02:06.595Z,8.25
2023-02-15T18:05:11.083Z,7.35
2023-02-15T18:08:15.315Z,6.85
2023-02-15T18:11:19.711Z,6.30
2023-02-15T18:14:07.485Z,7.18
2023-02-15T18:16:54.914Z,7.63
2023-02-15T18:19:44.102Z,9.30
2023-02-15T18:22:29.991Z,6.72
2023-02-15T18:25:18.335Z,8.73
2023-02-15T18:28:04.466Z,9.57
2023-02-15T18:30:54.828Z,9.88
2023-02-15T18:33:50.396Z,11.38
2023-02-15T18:36:45.266Z,15.13
2023-02-15T18:39:45.653Z,14.35
2023-02-15T18:42:36.609Z,13.75
2023-02-15T18:45:25.441Z,15.93
2023-02-15T18:48:11.444Z,14.77
2023-02-15T18:50:58.394Z,13.50
2023-02-15T18:53:44.797Z,11.50
2023-02-15T18:56:30.837Z,11.05
2023-02-15T18:59:19.407Z,9.15
2023-02-15T19:02:12.859Z,9.05
2023-02-15T19:05:00.207Z,9.10
2023-02-15T19:07:56.255Z,9.77
2023-02-15T19:10:58.379Z,9.45
2023-02-15T19:13:44.003Z,9.30
2023-02-15T19:16:34.912Z,10.60
2023-02-15T19:19:20.896Z,10.77
2023-02-15T19:22:06.577Z,11.60
2023-02-15T19:24:53.939Z,11.95
2023-02-15T19:27:39.625Z,12.80
2023-02-15T19:30:31.494Z,10.48
2023-02-15T19:33:22.525Z,8.82
2023-02-15T19:36:17.485Z,9.50
2023-02-15T19:39:03.434Z,8.93
2023-02-15T19:41:49.968Z,10.90
2023-02-15T19:44:35.384Z,10.10
2023-02-15T19:47:28.002Z,7.53
2023-02-15T19:50:22.561Z,7.50
2023-02-15T19:53:19.988Z,10.15
2023-02-15T19:56:05.706Z,10.80
2023-02-15T19:58:52.442Z,10.23
2023-02-15T20:01:39.715Z,9.85
2023-02-15T20:04:27.092Z,7.60
2023-02-15T20:07:30.740Z,9.75
2023-02-15T20:10:26.978Z,8.43
2023-02-15T20:13:17.669Z,9.05
2023-02-15T20:16:06.261Z,8.88
2023-02-15T20:18:52.503Z,8.15
2023-02-15T20:21:39.197Z,7.22
2023-02-15T20:24:31.036Z,8.48
2023-02-15T20:27:22.523Z,8.18
2023-02-15T20:30:22.459Z,8.40
2023-02-15T20:33:09.303Z,9.10
2023-02-15T20:35:55.480Z,10.63
2023-02-15T20:38:42.176Z,9.57
2023-02-15T20:41:37.743Z,13.02
2023-02-15T20:44:30.995Z,18.60
2023-02-15T20:47:16.681Z,33.80
2023-02-15T20:50:02.121Z,39.75
2023-02-15T20:52:50.022Z,38.53
2023-02-15T20:55:37.664Z,44.30
2023-02-15T20:58:26.921Z,47.47
2023-02-15T21:01:14.676Z,49.50
2023-02-15T21:04:00.961Z,48.50
2023-02-15T21:06:47.651Z,49.28
2023-02-15T21:09:33.728Z,48.30
2023-02-15T21:12:21.735Z,50.13
2023-02-15T21:15:32.389Z,48.67
2023-02-15T21:18:28.291Z,43.97
2023-02-15T21:21:18.821Z,43.53
2023-02-15T21:24:05.739Z,43.30
2023-02-15T21:26:51.713Z,42.97
2023-02-15T21:29:37.743Z,38.70
2023-02-15T21:32:23.387Z,39.42
2023-02-15T21:35:12.607Z,40.60
2023-02-15T21:37:58.101Z,36.65
2023-02-15T21:40:44.537Z,34.03
2023-02-15T21:43:48.786Z,32.90
2023-02-15T21:46:53.015Z,30.83
2023-02-15T21:49:39.058Z,32.35
2023-02-15T21:52:28.302Z,34.40
2023-02-15T21:55:15.163Z,38.67
2023-02-15T21:58:01.167Z,41.88
2023-02-15T22:00:48.026Z,41.65
2023-02-15T22:03:36.395Z,43.08
2023-02-15T22:06:22.092Z,42.10
2023-02-15T22:09:16.991Z,39.10
2023-02-15T22:12:03.043Z,36.50
2023-02-15T22:14:54.019Z,32.70
2023-02-15T22:17:39.796Z,34.40
2023-02-15T22:20:25.142Z,35.17
2023-02-15T22:23:10.620Z,33.28
2023-02-15T22:26:07.685Z,33.33
2023-02-15T22:28:53.216Z,33.05
2023-02-15T22:31:39.444Z,31.65
2023-02-15T22:34:27.885Z,30.42
2023-02-15T22:37:13.633Z,32.88
2023-02-15T22:39:59.217Z,35.55
2023-02-15T22:42:50.601Z,35.80
2023-02-15T22:45:36.543Z,32.17
2023-02-15T22:48:22.869Z,32.83
2023-02-15T22:51:13.301Z,31.58
2023-02-15T22:53:58.692Z,31.52
2023-02-15T22:56:51.342Z,26.92
2023-02-15T22:59:36.882Z,27.05
2023-02-15T23:02:22.302Z,28.17
2023-02-15T23:05:18.091Z,24.92
2023-02-15T23:08:03.452Z,26.13
2023-02-15T23:10:54.157Z,26.88
2023-02-15T23:13:40.276Z,26.05
2023-02-15T23:16:25.972Z,25.60
2023-02-15T23:19:15.201Z,27.33
2023-02-15T23:22:00.903Z,27.67
2023-02-15T23:24:52.648Z,29.02
2023-02-15T23:27:56.459Z,31.43
2023-02-15T23:30:41.901Z,30.05
2023-02-15T23:33:31.400Z,30.80
2023-02-15T23:36:35.349Z,29.17
2023-02-15T23:39:45.162Z,27.67
2023-02-15T23:42:33.835Z,26.73
2023-02-15T23:45:23.689Z,27.10
2023-02-15T23:48:32.242Z,27.80
2023-02-15T23:51:18.314Z,22.92
2023-02-15T23:54:03.622Z,22.17
2023-02-15T23:57:01.356Z,24.77
2023-02-15T23:59:48.134Z,23.63
